Flight Track Log - Related Links

Times and Time Zones

All times are in EDT time to prevent confusion due to time zone crossing. See the KAP66 flight status page for this flight to view local times or setup timezone preferences in your user account.


Time Position Orientation Groundspeed Altitude Reporting Facility
EDT Latitude Longitude Course Direction KTS MPH feet Rate Location/Type
Tue 01:03:54 PM 42.3333 -70.9500 124° Southeast 114 131 1,200  Level KA90
Tue 01:04:53 PM 42.3167 -70.9167 124° Southeast 111 128 1,800 550 Climbing KA90
Tue 01:05:54 PM 42.3000 -70.8833 124° Southeast 123 142 2,300 545 Climbing KA90
Tue 01:06:54 PM 42.2833 -70.8333 114° Southeast 131 151 2,900 619 Climbing KA90
Tue 01:08:00 PM 42.1744 -70.8429 114° Southeast  Level Estimated
Tue 01:08:00 PM 42.2500 -70.8000 143° Southeast 127 146 3,600  Level KA90
Tue 01:09:00 PM 42.2333 -70.7667 124° Southeast 129 148 4,200 550 Climbing KA90
Tue 01:10:00 PM 42.1833 -70.7500 166° South 136 157 4,700 400 Climbing KA90
Tue 01:11:00 PM 42.1500 -70.7333 160° South 139 160 5,000 154 Climbing KA90
Tue 01:11:57 PM 42.1167 -70.7000 143° Southeast 155 178 5,000  Level KA90
Tue 01:13:00 PM 42.0833 -70.6667 143° Southeast 151 174 5,000  Level KA90
Tue 01:14:00 PM 42.0500 -70.6500 160° South 150 173 5,000  Level KA90
Tue 01:15:00 PM 42.0174 -70.6255 151° Southeast  Level Estimated
Tue 01:22:00 PM 41.7889 -70.4549 151° Southeast  Level Estimated
Tue 01:23:00 PM 41.7562 -70.4307 151° Southeast  Level Estimated
Tue 01:24:00 PM 41.7236 -70.4064 151° Southeast  Level Estimated
Tue 01:25:00 PM 41.6909 -70.3822 151° Southeast  Level Estimated
Tue 01:26:00 PM 41.6582 -70.3580 151° Southeast  Level Estimated
Tue 01:27:00 PM 41.6256 -70.3338 151° Southeast  Level Estimated
Tue 01:28:00 PM 41.5929 -70.3097 151° Southeast  Level Estimated
Tue 01:29:00 PM 41.5602 -70.2856 151° Southeast  Level Estimated
Tue 01:30:00 PM 41.5275 -70.2615 151° Southeast  Level Estimated
Tue 01:31:00 PM 41.4948 -70.2374 151° Southeast  Level Estimated
Tue 01:32:00 PM 41.4621 -70.2133 151° Southeast  Level Estimated
Tue 01:33:00 PM 41.4294 -70.1893 151° Southeast  Level Estimated
Tue 01:34:00 PM 41.3967 -70.1653 151° Southeast  Level Estimated
Tue 01:35:00 PM 41.3640 -70.1413 151° Southeast  Level Estimated
Tue 01:36:00 PM 41.3312 -70.1174 151° Southeast  Level Estimated
Tue 01:37:00 PM 41.2985 -70.0935 151° Southeast  Level Estimated
Tue 01:38:00 PM 41.2658 -70.0695 151° Southeast  Level Estimated

Login

Don't have an account? Register now (free) for customized features, flight alerts, and more!